sensor_id;sensor_type;location;lat;lon;timestamp;pressure;altitude;pressure_sealevel;temperature;humidity
7824;BME280;3957;48.61947800;9.05303100;2024-01-15T00:00:58;94969.47;;;-4.15;100.00
7824;BME280;3957;48.61947800;9.05303100;2024-01-15T00:02:00;94969.72;;;-4.08;100.00
7824;BME280;3957;48.61947800;9.05303100;2024-01-15T00:03:02;94971.53;;;-4.08;100.00
7824;BME280;3957;48.61947800;9.05303100;2024-01-15T00:04:04;94971.41;;;-4.17;100.00
7824;BME280;3957;48.61947800;9.05303100;2024-01-15T00:05:06;94969.19;;;-4.12;100.00
7824;BME280;3957;48.61947800;9.05303100;2024-01-15T00:06:07;94973.03;;;-4.06;100.00
7824;BME280;3957;48.61947800;9.05303100;2024-01-15T00:07:09;94970.97;;;-4.12;100.00
7824;BME280;3957;48.61947800;9.05303100;2024-01-15T00:08:11;94966.31;;;-4.08;100.00
7824;BME280;3957;48.61947800;9.05303100;2024-01-15T00:09:12;94970.13;;;-4.03;100.00
7824;BME280;3957;48.61947800;9.05303100;2024-01-15T00:10:14;94960.78;;;-4.05;100.00
7824;BME280;3957;48.61947800;9.05303100;2024-01-15T00:11:16;94962.59;;;-4.06;100.00
7824;BME280;3957;48.61947800;9.05303100;2024-01-15T00:12:17;94953.63;;;-4.03;100.00
7824;BME280;3957;48.61947800;9.05303100;2024-01-15T00:13:19;94952.53;;;-4.11;100.00
7824;BME280;3957;48.61947800;9.05303100;2024-01-15T00:14:20;94952.41;;;-4.09;100.00
7824;BME280;3957;48.61947800;9.05303100;2024-01-15T00:15:22;94946.66;;;-4.13;100.00
7824;BME280;3957;48.61947800;9.05303100;2024-01-15T00:16:24;94954.50;;;-4.13;100.00
7824;BME280;3957;48.61947800;9.05303100;2024-01-15T00:17:25;94951.63;;;-4.19;100.00
7824;BME280;3957;48.61947800;9.05303100;2024-01-15T00:18:27;94956.97;;;-4.11;100.00
7824;BME280;3957;48.61947800;9.05303100;2024-01-15T00:19:29;94948.97;;;-4.10;100.00
7824;BME280;3957;48.61947800;9.05303100;2024-01-15T00:20:33;94955.16;;;-4.11;100.00
7824;BME280;3957;48.61947800;9.05303100;2024-01-15T00:21:35;94955.41;;;-4.04;100.00
7824;BME280;3957;48.61947800;9.05303100;2024-01-15T00:22:36;94958.72;;;-4.02;100.00
7824;BME280;3957;48.61947800;9.05303100;2024-01-15T00:23:42;94960.34;;;-4.01;100.00
7824;BME280;3957;48.61947800;9.05303100;2024-01-15T00:24:45;94956.94;;;-4.01;100.00
7824;BME280;3957;48.61947800;9.05303100;2024-01-15T00:25:47;94957.63;;;-4.09;100.00
7824;BME280;3957;48.61947800;9.05303100;2024-01-15T00:26:48;94952.13;;;-4.16;100.00
7824;BME280;3957;48.61947800;9.05303100;2024-01-15T00:27:50;94952.69;;;-4.12;100.00
7824;BME280;3957;48.61947800;9.05303100;2024-01-15T00:28:51;94949.81;;;-4.19;100.00
7824;BME280;3957;48.61947800;9.05303100;2024-01-15T00:29:53;94948.88;;;-4.18;100.00
7824;BME280;3957;48.61947800;9.05303100;2024-01-15T00:30:55;94949.78;;;-4.09;100.00
7824;BME280;3957;48.61947800;9.05303100;2024-01-15T00:31:57;94950.38;;;-4.15;100.00
7824;BME280;3957;48.61947800;9.05303100;2024-01-15T00:32:59;94950.78;;;-4.20;100.00
7824;BME280;3957;48.61947800;9.05303100;2024-01-15T00:34:00;94946.50;;;-4.11;100.00
7824;BME280;3957;48.61947800;9.05303100;2024-01-15T00:35:02;94949.53;;;-4.16;100.00
7824;BME280;3957;48.61947800;9.05303100;2024-01-15T00:36:05;94945.16;;;-4.15;100.00
7824;BME280;3957;48.61947800;9.05303100;2024-01-15T00:37:06;94949.28;;;-4.13;100.00
7824;BME280;3957;48.61947800;9.05303100;2024-01-15T00:38:08;94941.56;;;-4.24;100.00
7824;BME280;3957;48.61947800;9.05303100;2024-01-15T00:39:10;94945.56;;;-4.20;100.00
7824;BME280;3957;48.61947800;9.05303100;2024-01-15T00:40:12;94945.28;;;-4.17;100.00
7824;BME280;3957;48.61947800;9.05303100;2024-01-15T00:41:14;94935.81;;;-4.18;100.00
7824;BME280;3957;48.61947800;9.05303100;2024-01-15T00:42:15;94937.19;;;-4.23;100.00
7824;BME280;3957;48.61947800;9.05303100;2024-01-15T00:43:17;94934.47;;;-4.32;100.00
7824;BME280;3957;48.61947800;9.05303100;2024-01-15T00:44:20;94931.84;;;-4.32;100.00
7824;BME280;3957;48.61947800;9.05303100;2024-01-15T00:45:21;94937.22;;;-4.33;100.00
7824;BME280;3957;48.61947800;9.05303100;2024-01-15T00:46:23;94936.13;;;-4.31;100.00
7824;BME280;3957;48.61947800;9.05303100;2024-01-15T00:47:25;94944.50;;;-4.37;100.00
7824;BME280;3957;48.61947800;9.05303100;2024-01-15T00:48:27;94939.84;;;-4.43;100.00
7824;BME280;3957;48.61947800;9.05303100;2024-01-15T00:49:29;94939.72;;;-4.41;100.00
7824;BME280;3957;48.61947800;9.05303100;2024-01-15T00:50:30;94945.31;;;-4.46;100.00
7824;BME280;3957;48.61947800;9.05303100;2024-01-15T00:51:32;94946.31;;;-4.47;100.00
7824;BME280;3957;48.61947800;9.05303100;2024-01-15T00:52:34;94938.47;;;-4.47;100.00
7824;BME280;3957;48.61947800;9.05303100;2024-01-15T00:53:35;94932.56;;;-4.49;100.00
7824;BME280;3957;48.61947800;9.05303100;2024-01-15T00:54:37;94931.31;;;-4.45;100.00
7824;BME280;3957;48.61947800;9.05303100;2024-01-15T00:55:39;94938.19;;;-4.44;100.00
7824;BME280;3957;48.61947800;9.05303100;2024-01-15T00:56:40;94938.34;;;-4.46;100.00
7824;BME280;3957;48.61947800;9.05303100;2024-01-15T00:57:42;94943.16;;;-4.51;100.00
7824;BME280;3957;48.61947800;9.05303100;2024-01-15T00:58:43;94937.50;;;-4.46;100.00
7824;BME280;3957;48.61947800;9.05303100;2024-01-15T00:59:45;94935.88;;;-4.57;100.00
7824;BME280;3957;48.61947800;9.05303100;2024-01-15T01:00:47;94940.53;;;-4.51;100.00
7824;BME280;3957;48.61947800;9.05303100;2024-01-15T01:01:49;94943.00;;;-4.49;100.00
7824;BME280;3957;48.61947800;9.05303100;2024-01-15T01:02:50;94947.13;;;-4.47;100.00
7824;BME280;3957;48.61947800;9.05303100;2024-01-15T01:03:52;94948.09;;;-4.57;100.00
7824;BME280;3957;48.61947800;9.05303100;2024-01-15T01:04:54;94939.16;;;-4.55;100.00
7824;BME280;3957;48.61947800;9.05303100;2024-01-15T01:05:55;94948.38;;;-4.51;100.00
7824;BME280;3957;48.61947800;9.05303100;2024-01-15T01:06:57;94950.03;;;-4.59;100.00
7824;BME280;3957;48.61947800;9.05303100;2024-01-15T01:07:59;94953.16;;;-4.56;100.00
7824;BME280;3957;48.61947800;9.05303100;2024-01-15T01:09:00;94945.78;;;-4.61;100.00
7824;BME280;3957;48.61947800;9.05303100;2024-01-15T01:10:02;94945.91;;;-4.52;100.00
7824;BME280;3957;48.61947800;9.05303100;2024-01-15T01:11:04;94961.28;;;-4.49;100.00
7824;BME280;3957;48.61947800;9.05303100;2024-01-15T01:12:06;94954.13;;;-4.37;100.00
7824;BME280;3957;48.61947800;9.05303100;2024-01-15T01:13:08;94957.97;;;-4.41;100.00
7824;BME280;3957;48.61947800;9.05303100;2024-01-15T01:14:10;94950.69;;;-4.38;100.00
7824;BME280;3957;48.61947800;9.05303100;2024-01-15T01:15:12;94956.03;;;-4.30;100.00
7824;BME280;3957;48.61947800;9.05303100;2024-01-15T01:16:13;94959.47;;;-4.29;100.00
7824;BME280;3957;48.61947800;9.05303100;2024-01-15T01:17:15;94953.84;;;-4.34;100.00
7824;BME280;3957;48.61947800;9.05303100;2024-01-15T01:18:16;94950.13;;;-4.32;100.00
7824;BME280;3957;48.61947800;9.05303100;2024-01-15T01:19:18;94950.25;;;-4.23;100.00
7824;BME280;3957;48.61947800;9.05303100;2024-01-15T01:20:20;94959.34;;;-4.28;100.00
7824;BME280;3957;48.61947800;9.05303100;2024-01-15T01:21:22;94955.63;;;-4.25;100.00
7824;BME280;3957;48.61947800;9.05303100;2024-01-15T01:22:23;94954.63;;;-4.24;100.00
7824;BME280;3957;48.61947800;9.05303100;2024-01-15T01:23:25;94956.44;;;-4.24;100.00
7824;BME280;3957;48.61947800;9.05303100;2024-01-15T01:24:27;94956.84;;;-4.19;100.00
7824;BME280;3957;48.61947800;9.05303100;2024-01-15T01:25:28;94958.06;;;-4.14;100.00
7824;BME280;3957;48.61947800;9.05303100;2024-01-15T01:26:30;94964.38;;;-4.16;100.00
7824;BME280;3957;48.61947800;9.05303100;2024-01-15T01:27:32;94954.09;;;-4.18;100.00
7824;BME280;3957;48.61947800;9.05303100;2024-01-15T01:28:34;94952.97;;;-4.15;100.00
7824;BME280;3957;48.61947800;9.05303100;2024-01-15T01:29:35;94967.81;;;-4.06;100.00
7824;BME280;3957;48.61947800;9.05303100;2024-01-15T01:30:37;94957.38;;;-4.06;100.00
7824;BME280;3957;48.61947800;9.05303100;2024-01-15T01:31:43;94958.59;;;-4.00;100.00
7824;BME280;3957;48.61947800;9.05303100;2024-01-15T01:32:45;94963.78;;;-3.90;100.00
7824;BME280;3957;48.61947800;9.05303100;2024-01-15T01:33:47;94955.53;;;-3.96;100.00
7824;BME280;3957;48.61947800;9.05303100;2024-01-15T01:34:49;94955.81;;;-3.99;100.00
7824;BME280;3957;48.61947800;9.05303100;2024-01-15T01:35:50;94962.56;;;-3.96;100.00
7824;BME280;3957;48.61947800;9.05303100;2024-01-15T01:36:52;94956.75;;;-3.90;100.00
7824;BME280;3957;48.61947800;9.05303100;2024-01-15T01:37:54;94958.41;;;-3.89;100.00
7824;BME280;3957;48.61947800;9.05303100;2024-01-15T01:38:55;94961.97;;;-3.90;100.00
7824;BME280;3957;48.61947800;9.05303100;2024-01-15T01:39:57;94955.78;;;-3.89;100.00
7824;BME280;3957;48.61947800;9.05303100;2024-01-15T01:40:58;94960.19;;;-3.89;100.00
7824;BME280;3957;48.61947800;9.05303100;2024-01-15T01:42:00;94954.00;;;-3.88;100.00
7824;BME280;3957;48.61947800;9.05303100;2024-01-15T01:43:03;94960.31;;;-3.91;100.00
7824;BME280;3957;48.61947800;9.05303100;2024-01-15T01:44:05;94956.19;;;-3.84;100.00
7824;BME280;3957;48.61947800;9.05303100;2024-01-15T01:45:07;94952.06;;;-3.86;100.00
7824;BME280;3957;48.61947800;9.05303100;2024-01-15T01:46:10;94953.69;;;-3.85;100.00
7824;BME280;3957;48.61947800;9.05303100;2024-01-15T01:47:13;94951.34;;;-3.79;100.00
7824;BME280;3957;48.61947800;9.05303100;2024-01-15T01:48:15;94952.84;;;-3.76;100.00
7824;BME280;3957;48.61947800;9.05303100;2024-01-15T01:49:17;94958.78;;;-3.74;100.00
7824;BME280;3957;48.61947800;9.05303100;2024-01-15T01:50:19;94954.34;;;-3.73;100.00
7824;BME280;3957;48.61947800;9.05303100;2024-01-15T01:51:25;94961.50;;;-3.66;100.00
7824;BME280;3957;48.61947800;9.05303100;2024-01-15T01:52:26;94958.88;;;-3.66;100.00
7824;BME280;3957;48.61947800;9.05303100;2024-01-15T01:53:29;94950.25;;;-3.76;100.00
7824;BME280;3957;48.61947800;9.05303100;2024-01-15T01:54:32;94961.50;;;-3.66;100.00
7824;BME280;3957;48.61947800;9.05303100;2024-01-15T01:55:34;94954.31;;;-3.64;100.00
7824;BME280;3957;48.61947800;9.05303100;2024-01-15T01:56:36;94959.97;;;-3.68;100.00
7824;BME280;3957;48.61947800;9.05303100;2024-01-15T01:57:38;94957.63;;;-3.62;100.00
7824;BME280;3957;48.61947800;9.05303100;2024-01-15T01:58:40;94948.69;;;-3.69;100.00
7824;BME280;3957;48.61947800;9.05303100;2024-01-15T01:59:42;94954.50;;;-3.75;100.00
7824;BME280;3957;48.61947800;9.05303100;2024-01-15T02:00:43;94959.44;;;-3.72;100.00
7824;BME280;3957;48.61947800;9.05303100;2024-01-15T02:01:46;94955.88;;;-3.71;100.00
7824;BME280;3957;48.61947800;9.05303100;2024-01-15T02:02:50;94950.34;;;-3.68;100.00
7824;BME280;3957;48.61947800;9.05303100;2024-01-15T02:03:51;94941.69;;;-3.68;100.00
7824;BME280;3957;48.61947800;9.05303100;2024-01-15T02:04:53;94951.03;;;-3.66;100.00
7824;BME280;3957;48.61947800;9.05303100;2024-01-15T02:05:54;94945.13;;;-3.68;100.00
7824;BME280;3957;48.61947800;9.05303100;2024-01-15T02:06:56;94956.56;;;-3.79;100.00
7824;BME280;3957;48.61947800;9.05303100;2024-01-15T02:07:58;94954.06;;;-3.70;100.00
7824;BME280;3957;48.61947800;9.05303100;2024-01-15T02:09:00;94948.22;;;-3.82;100.00
7824;BME280;3957;48.61947800;9.05303100;2024-01-15T02:10:02;94945.16;;;-3.78;100.00
7824;BME280;3957;48.61947800;9.05303100;2024-01-15T02:11:04;94953.69;;;-3.85;100.00
7824;BME280;3957;48.61947800;9.05303100;2024-01-15T02:12:06;94951.94;;;-3.85;100.00
7824;BME280;3957;48.61947800;9.05303100;2024-01-15T02:13:08;94951.66;;;-3.91;100.00
7824;BME280;3957;48.61947800;9.05303100;2024-01-15T02:14:09;94948.53;;;-4.05;100.00
7824;BME280;3957;48.61947800;9.05303100;2024-01-15T02:15:11;94948.00;;;-3.99;100.00
7824;BME280;3957;48.61947800;9.05303100;2024-01-15T02:16:14;94946.63;;;-4.03;100.00
7824;BME280;3957;48.61947800;9.05303100;2024-01-15T02:17:15;94949.38;;;-4.04;100.00
7824;BME280;3957;48.61947800;9.05303100;2024-01-15T02:18:17;94944.00;;;-4.03;100.00
7824;BME280;3957;48.61947800;9.05303100;2024-01-15T02:19:19;94945.09;;;-3.96;100.00
7824;BME280;3957;48.61947800;9.05303100;2024-01-15T02:20:20;94938.91;;;-3.95;100.00
7824;BME280;3957;48.61947800;9.05303100;2024-01-15T02:21:22;94941.63;;;-3.86;100.00
7824;BME280;3957;48.61947800;9.05303100;2024-01-15T02:22:23;94940.38;;;-3.82;100.00
7824;BME280;3957;48.61947800;9.05303100;2024-01-15T02:23:25;94943.41;;;-3.87;100.00
7824;BME280;3957;48.61947800;9.05303100;2024-01-15T02:24:26;94940.25;;;-3.90;100.00
7824;BME280;3957;48.61947800;9.05303100;2024-01-15T02:25:28;94940.81;;;-3.97;100.00
7824;BME280;3957;48.61947800;9.05303100;2024-01-15T02:26:29;94941.63;;;-3.86;100.00
7824;BME280;3957;48.61947800;9.05303100;2024-01-15T02:27:31;94947.25;;;-3.91;100.00
7824;BME280;3957;48.61947800;9.05303100;2024-01-15T02:28:33;94937.34;;;-3.87;100.00
7824;BME280;3957;48.61947800;9.05303100;2024-01-15T02:29:35;94938.72;;;-3.83;100.00
7824;BME280;3957;48.61947800;9.05303100;2024-01-15T02:30:38;94946.97;;;-3.78;100.00
7824;BME280;3957;48.61947800;9.05303100;2024-01-15T02:31:43;94933.75;;;-3.77;100.00
7824;BME280;3957;48.61947800;9.05303100;2024-01-15T02:32:45;94937.06;;;-3.84;100.00
7824;BME280;3957;48.61947800;9.05303100;2024-01-15T02:33:47;94937.22;;;-3.86;100.00
7824;BME280;3957;48.61947800;9.05303100;2024-01-15T02:34:49;94935.84;;;-3.90;100.00
7824;BME280;3957;48.61947800;9.05303100;2024-01-15T02:35:51;94945.50;;;-3.90;100.00
7824;BME280;3957;48.61947800;9.05303100;2024-01-15T02:36:53;94934.34;;;-3.93;100.00
7824;BME280;3957;48.61947800;9.05303100;2024-01-15T02:37:54;94931.34;;;-3.98;100.00
7824;BME280;3957;48.61947800;9.05303100;2024-01-15T02:38:56;94933.97;;;-4.07;100.00
7824;BME280;3957;48.61947800;9.05303100;2024-01-15T02:39:57;94936.47;;;-4.16;100.00
7824;BME280;3957;48.61947800;9.05303100;2024-01-15T02:40:59;94930.88;;;-4.21;100.00
7824;BME280;3957;48.61947800;9.05303100;2024-01-15T02:42:00;94937.06;;;-4.22;100.00
7824;BME280;3957;48.61947800;9.05303100;2024-01-15T02:43:02;94938.44;;;-4.28;100.00
7824;BME280;3957;48.61947800;9.05303100;2024-01-15T02:44:04;94939.97;;;-4.35;100.00
7824;BME280;3957;48.61947800;9.05303100;2024-01-15T02:45:06;94935.72;;;-4.36;100.00
7824;BME280;3957;48.61947800;9.05303100;2024-01-15T02:46:07;94936.25;;;-4.32;100.00
7824;BME280;3957;48.61947800;9.05303100;2024-01-15T02:47:09;94937.50;;;-4.36;100.00
7824;BME280;3957;48.61947800;9.05303100;2024-01-15T02:48:10;94937.50;;;-4.36;100.00
7824;BME280;3957;48.61947800;9.05303100;2024-01-15T02:49:12;94940.38;;;-4.39;100.00
7824;BME280;3957;48.61947800;9.05303100;2024-01-15T02:50:14;94940.50;;;-4.41;100.00
7824;BME280;3957;48.61947800;9.05303100;2024-01-15T02:51:16;94935.84;;;-4.37;100.00
7824;BME280;3957;48.61947800;9.05303100;2024-01-15T02:52:18;94932.69;;;-4.41;100.00
7824;BME280;3957;48.61947800;9.05303100;2024-01-15T02:53:19;94929.00;;;-4.48;100.00
7824;BME280;3957;48.61947800;9.05303100;2024-01-15T02:54:21;94936.25;;;-4.42;100.00
7824;BME280;3957;48.61947800;9.05303100;2024-01-15T02:55:22;94933.13;;;-4.46;100.00
7824;BME280;3957;48.61947800;9.05303100;2024-01-15T02:56:24;94926.78;;;-4.43;100.00
7824;BME280;3957;48.61947800;9.05303100;2024-01-15T02:57:26;94929.41;;;-4.43;100.00
7824;BME280;3957;48.61947800;9.05303100;2024-01-15T02:58:27;94927.19;;;-4.48;100.00
7824;BME280;3957;48.61947800;9.05303100;2024-01-15T02:59:29;94921.69;;;-4.35;100.00
7824;BME280;3957;48.61947800;9.05303100;2024-01-15T03:00:30;94919.22;;;-4.46;100.00
7824;BME280;3957;48.61947800;9.05303100;2024-01-15T03:01:32;94918.25;;;-4.45;100.00
7824;BME280;3957;48.61947800;9.05303100;2024-01-15T03:02:37;94925.00;;;-4.42;100.00
7824;BME280;3957;48.61947800;9.05303100;2024-01-15T03:03:43;94925.94;;;-4.44;100.00
7824;BME280;3957;48.61947800;9.05303100;2024-01-15T03:04:45;94925.44;;;-4.47;100.00
7824;BME280;3957;48.61947800;9.05303100;2024-01-15T03:05:47;94922.38;;;-4.42;100.00
7824;BME280;3957;48.61947800;9.05303100;2024-01-15T03:06:48;94924.72;;;-4.49;100.00
7824;BME280;3957;48.61947800;9.05303100;2024-01-15T03:07:50;94916.75;;;-4.48;100.00
7824;BME280;3957;48.61947800;9.05303100;2024-01-15T03:08:52;94917.59;;;-4.47;100.00
7824;BME280;3957;48.61947800;9.05303100;2024-01-15T03:09:53;94914.13;;;-4.48;100.00
7824;BME280;3957;48.61947800;9.05303100;2024-01-15T03:10:55;94922.66;;;-4.46;100.00
7824;BME280;3957;48.61947800;9.05303100;2024-01-15T03:11:57;94914.25;;;-4.39;100.00
7824;BME280;3957;48.61947800;9.05303100;2024-01-15T03:12:58;94921.69;;;-4.35;100.00
7824;BME280;3957;48.61947800;9.05303100;2024-01-15T03:14:00;94913.31;;;-4.38;100.00
7824;BME280;3957;48.61947800;9.05303100;2024-01-15T03:15:01;94910.81;;;-4.30;100.00
7824;BME280;3957;48.61947800;9.05303100;2024-01-15T03:16:05;94913.41;;;-4.30;100.00
7824;BME280;3957;48.61947800;9.05303100;2024-01-15T03:17:06;94913.72;;;-4.33;100.00
7824;BME280;3957;48.61947800;9.05303100;2024-01-15T03:18:10;94917.00;;;-4.31;100.00
7824;BME280;3957;48.61947800;9.05303100;2024-01-15T03:19:12;94911.88;;;-4.23;100.00
7824;BME280;3957;48.61947800;9.05303100;2024-01-15T03:20:13;94914.34;;;-4.21;100.00
7824;BME280;3957;48.61947800;9.05303100;2024-01-15T03:21:15;94920.13;;;-4.18;100.00
7824;BME280;3957;48.61947800;9.05303100;2024-01-15T03:22:17;94919.56;;;-4.21;100.00
7824;BME280;3957;48.61947800;9.05303100;2024-01-15T03:23:19;94926.03;;;-4.16;100.00
7824;BME280;3957;48.61947800;9.05303100;2024-01-15T03:24:20;94912.97;;;-4.16;100.00
7824;BME280;3957;48.61947800;9.05303100;2024-01-15T03:25:22;94909.41;;;-4.24;100.00
7824;BME280;3957;48.61947800;9.05303100;2024-01-15T03:26:23;94915.19;;;-4.21;100.00
7824;BME280;3957;48.61947800;9.05303100;2024-01-15T03:27:25;94913.09;;;-4.17;100.00
7824;BME280;3957;48.61947800;9.05303100;2024-01-15T03:28:27;94908.56;;;-4.15;100.00
7824;BME280;3957;48.61947800;9.05303100;2024-01-15T03:29:28;94909.53;;;-4.16;100.00
7824;BME280;3957;48.61947800;9.05303100;2024-01-15T03:30:30;94899.06;;;-4.06;100.00
7824;BME280;3957;48.61947800;9.05303100;2024-01-15T03:31:32;94908.41;;;-4.04;100.00
7824;BME280;3957;48.61947800;9.05303100;2024-01-15T03:32:34;94911.31;;;-4.07;100.00
7824;BME280;3957;48.61947800;9.05303100;2024-01-15T03:33:35;94909.22;;;-4.03;100.00
7824;BME280;3957;48.61947800;9.05303100;2024-01-15T03:34:37;94904.97;;;-4.04;100.00
7824;BME280;3957;48.61947800;9.05303100;2024-01-15T03:35:39;94898.91;;;-4.05;100.00
7824;BME280;3957;48.61947800;9.05303100;2024-01-15T03:36:41;94895.22;;;-4.12;100.00
7824;BME280;3957;48.61947800;9.05303100;2024-01-15T03:37:43;94893.19;;;-4.18;100.00
7824;BME280;3957;48.61947800;9.05303100;2024-01-15T03:38:44;94885.06;;;-4.15;100.00
7824;BME280;3957;48.61947800;9.05303100;2024-01-15T03:39:46;94886.16;;;-4.18;100.00
7824;BME280;3957;48.61947800;9.05303100;2024-01-15T03:40:47;94890.94;;;-4.13;100.00
7824;BME280;3957;48.61947800;9.05303100;2024-01-15T03:41:49;94893.31;;;-4.10;100.00
7824;BME280;3957;48.61947800;9.05303100;2024-01-15T03:42:51;94892.75;;;-4.14;100.00
7824;BME280;3957;48.61947800;9.05303100;2024-01-15T03:43:52;94904.41;;;-4.08;100.00
7824;BME280;3957;48.61947800;9.05303100;2024-01-15T03:44:54;94890.91;;;-4.03;100.00
7824;BME280;3957;48.61947800;9.05303100;2024-01-15T03:45:55;94902.03;;;-3.91;100.00
7824;BME280;3957;48.61947800;9.05303100;2024-01-15T03:46:57;94902.41;;;-3.86;100.00
7824;BME280;3957;48.61947800;9.05303100;2024-01-15T03:47:59;94908.84;;;-3.81;100.00
7824;BME280;3957;48.61947800;9.05303100;2024-01-15T03:49:01;94908.84;;;-3.81;100.00
7824;BME280;3957;48.61947800;9.05303100;2024-01-15T03:50:03;94910.88;;;-3.74;100.00
7824;BME280;3957;48.61947800;9.05303100;2024-01-15T03:51:05;94912.94;;;-3.68;100.00
7824;BME280;3957;48.61947800;9.05303100;2024-01-15T03:52:07;94906.44;;;-3.64;100.00
7824;BME280;3957;48.61947800;9.05303100;2024-01-15T03:53:08;94908.66;;;-3.69;100.00
7824;BME280;3957;48.61947800;9.05303100;2024-01-15T03:54:10;94909.47;;;-3.69;100.00
7824;BME280;3957;48.61947800;9.05303100;2024-01-15T03:55:11;94902.31;;;-3.67;100.00
7824;BME280;3957;48.61947800;9.05303100;2024-01-15T03:56:13;94905.03;;;-3.59;100.00
7824;BME280;3957;48.61947800;9.05303100;2024-01-15T03:57:15;94908.59;;;-3.60;100.00
7824;BME280;3957;48.61947800;9.05303100;2024-01-15T03:58:16;94899.41;;;-3.64;100.00
7824;BME280;3957;48.61947800;9.05303100;2024-01-15T03:59:18;94907.09;;;-3.62;100.00
7824;BME280;3957;48.61947800;9.05303100;2024-01-15T04:00:20;94910.72;;;-3.63;100.00
7824;BME280;3957;48.61947800;9.05303100;2024-01-15T04:01:22;94917.25;;;-3.59;100.00
7824;BME280;3957;48.61947800;9.05303100;2024-01-15T04:02:23;94908.47;;;-3.58;100.00
7824;BME280;3957;48.61947800;9.05303100;2024-01-15T04:03:25;94908.41;;;-3.48;100.00
7824;BME280;3957;48.61947800;9.05303100;2024-01-15T04:04:27;94900.56;;;-3.48;100.00
7824;BME280;3957;48.61947800;9.05303100;2024-01-15T04:05:29;94914.63;;;-3.49;100.00
7824;BME280;3957;48.61947800;9.05303100;2024-01-15T04:06:30;94907.75;;;-3.50;100.00
7824;BME280;3957;48.61947800;9.05303100;2024-01-15T04:07:32;94911.03;;;-3.48;100.00
7824;BME280;3957;48.61947800;9.05303100;2024-01-15T04:08:33;94913.78;;;-3.50;100.00
7824;BME280;3957;48.61947800;9.05303100;2024-01-15T04:09:35;94910.44;;;-3.42;100.00
7824;BME280;3957;48.61947800;9.05303100;2024-01-15T04:10:37;94903.94;;;-3.38;100.00
7824;BME280;3957;48.61947800;9.05303100;2024-01-15T04:11:38;94895.31;;;-3.48;100.00
7824;BME280;3957;48.61947800;9.05303100;2024-01-15T04:12:40;94896.03;;;-3.46;100.00
7824;BME280;3957;48.61947800;9.05303100;2024-01-15T04:13:41;94897.66;;;-3.45;100.00
7824;BME280;3957;48.61947800;9.05303100;2024-01-15T04:14:43;94897.28;;;-3.50;100.00
7824;BME280;3957;48.61947800;9.05303100;2024-01-15T04:15:44;94902.22;;;-3.47;100.00
7824;BME280;3957;48.61947800;9.05303100;2024-01-15T04:16:46;94899.28;;;-3.44;100.00
7824;BME280;3957;48.61947800;9.05303100;2024-01-15T04:17:47;94905.22;;;-3.42;100.00
7824;BME280;3957;48.61947800;9.05303100;2024-01-15T04:18:49;94899.28;;;-3.44;100.00
7824;BME280;3957;48.61947800;9.05303100;2024-01-15T04:19:51;94893.41;;;-3.46;100.00
7824;BME280;3957;48.61947800;9.05303100;2024-01-15T04:20:52;94905.06;;;-3.40;100.00
7824;BME280;3957;48.61947800;9.05303100;2024-01-15T04:21:54;94904.25;;;-3.41;100.00
7824;BME280;3957;48.61947800;9.05303100;2024-01-15T04:22:55;94897.53;;;-3.44;100.00
7824;BME280;3957;48.61947800;9.05303100;2024-01-15T04:23:57;94897.28;;;-3.50;100.00
7824;BME280;3957;48.61947800;9.05303100;2024-01-15T04:24:59;94899.75;;;-3.49;100.00
7824;BME280;3957;48.61947800;9.05303100;2024-01-15T04:26:00;94899.59;;;-3.47;100.00
7824;BME280;3957;48.61947800;9.05303100;2024-01-15T04:27:02;94900.94;;;-3.43;100.00
7824;BME280;3957;48.61947800;9.05303100;2024-01-15T04:28:04;94896.84;;;-3.46;100.00
7824;BME280;3957;48.61947800;9.05303100;2024-01-15T04:29:05;94886.66;;;-3.49;100.00
7824;BME280;3957;48.61947800;9.05303100;2024-01-15T04:30:08;94893.50;;;-3.38;100.00
7824;BME280;3957;48.61947800;9.05303100;2024-01-15T04:31:09;94894.91;;;-3.44;100.00
7824;BME280;3957;48.61947800;9.05303100;2024-01-15T04:32:11;94878.81;;;-3.49;100.00
7824;BME280;3957;48.61947800;9.05303100;2024-01-15T04:33:13;94869.94;;;-3.38;100.00
7824;BME280;3957;48.61947800;9.05303100;2024-01-15T04:34:14;94874.88;;;-3.35;100.00
7824;BME280;3957;48.61947800;9.05303100;2024-01-15T04:35:16;94866.81;;;-3.42;100.00
7824;BME280;3957;48.61947800;9.05303100;2024-01-15T04:36:17;94872.72;;;-3.39;100.00
7824;BME280;3957;48.61947800;9.05303100;2024-01-15T04:37:19;94886.38;;;-3.46;100.00
7824;BME280;3957;48.61947800;9.05303100;2024-01-15T04:38:21;94884.69;;;-3.37;100.00
7824;BME280;3957;48.61947800;9.05303100;2024-01-15T04:39:23;94885.25;;;-3.43;100.00
7824;BME280;3957;48.61947800;9.05303100;2024-01-15T04:40:25;94890.63;;;-3.45;100.00
7824;BME280;3957;48.61947800;9.05303100;2024-01-15T04:41:28;94888.16;;;-3.46;100.00
7824;BME280;3957;48.61947800;9.05303100;2024-01-15T04:42:30;94887.72;;;-3.42;100.00
7824;BME280;3957;48.61947800;9.05303100;2024-01-15T04:43:32;94890.63;;;-3.45;100.00
7824;BME280;3957;48.61947800;9.05303100;2024-01-15T04:44:33;94890.94;;;-3.48;100.00
7824;BME280;3957;48.61947800;9.05303100;2024-01-15T04:45:35;94884.28;;;-3.42;100.00
7824;BME280;3957;48.61947800;9.05303100;2024-01-15T04:46:36;94886.75;;;-3.40;100.00
7824;BME280;3957;48.61947800;9.05303100;2024-01-15T04:47:37;94883.59;;;-3.44;100.00
7824;BME280;3957;48.61947800;9.05303100;2024-01-15T04:48:39;94891.91;;;-3.49;100.00
7824;BME280;3957;48.61947800;9.05303100;2024-01-15T04:49:41;94883.25;;;-3.49;100.00
7824;BME280;3957;48.61947800;9.05303100;2024-01-15T04:50:42;94889.81;;;-3.45;100.00
7824;BME280;3957;48.61947800;9.05303100;2024-01-15T04:51:44;94884.94;;;-3.58;100.00
7824;BME280;3957;48.61947800;9.05303100;2024-01-15T04:52:45;94884.41;;;-3.62;100.00